sensor_id;sensor_type;location;lat;lon;timestamp;temperature;humidity
12060;DHT22;6091;51.432;6.880;2024-01-30T00:00:48;23.10;32.80
12060;DHT22;6091;51.432;6.880;2024-01-30T00:03:16;23.10;32.80
12060;DHT22;6091;51.432;6.880;2024-01-30T00:05:43;23.10;32.80
12060;DHT22;6091;51.432;6.880;2024-01-30T00:08:11;23.10;32.80
12060;DHT22;6091;51.432;6.880;2024-01-30T00:10:38;23.10;32.80
12060;DHT22;6091;51.432;6.880;2024-01-30T00:13:05;23.10;32.90
12060;DHT22;6091;51.432;6.880;2024-01-30T00:15:32;23.10;32.90
12060;DHT22;6091;51.432;6.880;2024-01-30T00:18:00;23.10;32.90
12060;DHT22;6091;51.432;6.880;2024-01-30T00:20:28;23.10;32.90
12060;DHT22;6091;51.432;6.880;2024-01-30T00:22:55;23.00;32.80
12060;DHT22;6091;51.432;6.880;2024-01-30T00:25:22;23.10;32.90
12060;DHT22;6091;51.432;6.880;2024-01-30T00:27:52;23.00;32.80
12060;DHT22;6091;51.432;6.880;2024-01-30T00:30:20;23.00;32.80
12060;DHT22;6091;51.432;6.880;2024-01-30T00:32:48;23.00;32.90
12060;DHT22;6091;51.432;6.880;2024-01-30T00:35:15;23.00;32.90
12060;DHT22;6091;51.432;6.880;2024-01-30T00:37:42;23.00;32.90
12060;DHT22;6091;51.432;6.880;2024-01-30T00:40:10;23.00;32.90
12060;DHT22;6091;51.432;6.880;2024-01-30T00:42:43;23.00;32.90
12060;DHT22;6091;51.432;6.880;2024-01-30T00:45:16;23.00;32.90
12060;DHT22;6091;51.432;6.880;2024-01-30T00:47:44;23.00;33.10
12060;DHT22;6091;51.432;6.880;2024-01-30T00:50:11;23.00;33.00
12060;DHT22;6091;51.432;6.880;2024-01-30T00:52:38;23.00;33.00
12060;DHT22;6091;51.432;6.880;2024-01-30T00:55:06;23.00;33.00
12060;DHT22;6091;51.432;6.880;2024-01-30T00:57:34;22.90;33.00
12060;DHT22;6091;51.432;6.880;2024-01-30T01:00:01;22.90;33.00
12060;DHT22;6091;51.432;6.880;2024-01-30T01:02:28;22.90;33.00
12060;DHT22;6091;51.432;6.880;2024-01-30T01:04:57;22.90;33.00
12060;DHT22;6091;51.432;6.880;2024-01-30T01:07:24;22.90;33.00
12060;DHT22;6091;51.432;6.880;2024-01-30T01:09:51;22.90;33.10
12060;DHT22;6091;51.432;6.880;2024-01-30T01:12:19;22.90;33.10
12060;DHT22;6091;51.432;6.880;2024-01-30T01:14:46;22.90;33.00
12060;DHT22;6091;51.432;6.880;2024-01-30T01:17:13;22.90;33.10
12060;DHT22;6091;51.432;6.880;2024-01-30T01:19:41;22.90;33.10
12060;DHT22;6091;51.432;6.880;2024-01-30T01:22:08;22.90;33.10
12060;DHT22;6091;51.432;6.880;2024-01-30T01:24:36;22.90;33.10
12060;DHT22;6091;51.432;6.880;2024-01-30T01:27:04;22.90;33.20
12060;DHT22;6091;51.432;6.880;2024-01-30T01:29:32;22.90;33.20
12060;DHT22;6091;51.432;6.880;2024-01-30T01:31:59;22.80;33.10
12060;DHT22;6091;51.432;6.880;2024-01-30T01:34:26;22.90;33.20
12060;DHT22;6091;51.432;6.880;2024-01-30T01:36:56;22.80;33.20
12060;DHT22;6091;51.432;6.880;2024-01-30T01:39:24;22.80;33.20
12060;DHT22;6091;51.432;6.880;2024-01-30T01:41:51;22.80;33.80
12060;DHT22;6091;51.432;6.880;2024-01-30T01:44:19;22.80;33.20
12060;DHT22;6091;51.432;6.880;2024-01-30T01:46:46;22.80;33.20
12060;DHT22;6091;51.432;6.880;2024-01-30T01:49:14;22.80;33.20
12060;DHT22;6091;51.432;6.880;2024-01-30T01:51:43;22.80;33.30
12060;DHT22;6091;51.432;6.880;2024-01-30T01:54:12;22.80;33.20
12060;DHT22;6091;51.432;6.880;2024-01-30T01:56:41;22.80;33.30
12060;DHT22;6091;51.432;6.880;2024-01-30T01:59:09;22.80;33.30
12060;DHT22;6091;51.432;6.880;2024-01-30T02:01:37;22.80;33.30
12060;DHT22;6091;51.432;6.880;2024-01-30T02:04:05;22.80;33.30
12060;DHT22;6091;51.432;6.880;2024-01-30T02:06:34;22.80;33.30
12060;DHT22;6091;51.432;6.880;2024-01-30T02:09:02;22.70;33.20
12060;DHT22;6091;51.432;6.880;2024-01-30T02:11:31;22.70;33.20
12060;DHT22;6091;51.432;6.880;2024-01-30T02:14:03;22.70;33.30
12060;DHT22;6091;51.432;6.880;2024-01-30T02:16:35;22.70;33.30
12060;DHT22;6091;51.432;6.880;2024-01-30T02:19:03;22.70;33.30
12060;DHT22;6091;51.432;6.880;2024-01-30T02:21:30;22.70;33.30
12060;DHT22;6091;51.432;6.880;2024-01-30T02:23:58;22.70;33.30
12060;DHT22;6091;51.432;6.880;2024-01-30T02:26:26;22.70;33.30
12060;DHT22;6091;51.432;6.880;2024-01-30T02:28:53;22.70;33.30
12060;DHT22;6091;51.432;6.880;2024-01-30T02:31:21;22.70;33.30
12060;DHT22;6091;51.432;6.880;2024-01-30T02:33:48;22.70;33.30
12060;DHT22;6091;51.432;6.880;2024-01-30T02:36:15;22.70;33.30
12060;DHT22;6091;51.432;6.880;2024-01-30T02:38:42;22.70;33.40
12060;DHT22;6091;51.432;6.880;2024-01-30T02:41:09;22.70;33.40
12060;DHT22;6091;51.432;6.880;2024-01-30T02:43:36;22.70;33.40
12060;DHT22;6091;51.432;6.880;2024-01-30T02:46:03;22.60;33.40
12060;DHT22;6091;51.432;6.880;2024-01-30T02:48:30;22.60;33.40
12060;DHT22;6091;51.432;6.880;2024-01-30T02:50:58;22.60;33.40
12060;DHT22;6091;51.432;6.880;2024-01-30T02:53:25;22.60;33.40
12060;DHT22;6091;51.432;6.880;2024-01-30T02:55:52;22.60;33.40
12060;DHT22;6091;51.432;6.880;2024-01-30T02:58:19;22.60;33.40
12060;DHT22;6091;51.432;6.880;2024-01-30T03:00:46;22.60;33.50
12060;DHT22;6091;51.432;6.880;2024-01-30T03:03:14;22.60;33.40
12060;DHT22;6091;51.432;6.880;2024-01-30T03:05:41;22.60;33.50
12060;DHT22;6091;51.432;6.880;2024-01-30T03:08:08;22.60;33.40
12060;DHT22;6091;51.432;6.880;2024-01-30T03:10:35;22.60;33.50
12060;DHT22;6091;51.432;6.880;2024-01-30T03:13:03;22.60;33.50
12060;DHT22;6091;51.432;6.880;2024-01-30T03:15:30;22.60;33.50
12060;DHT22;6091;51.432;6.880;2024-01-30T03:17:57;22.50;33.60
12060;DHT22;6091;51.432;6.880;2024-01-30T03:20:24;22.60;33.50
12060;DHT22;6091;51.432;6.880;2024-01-30T03:22:52;22.50;33.40
12060;DHT22;6091;51.432;6.880;2024-01-30T03:25:20;22.50;33.40
12060;DHT22;6091;51.432;6.880;2024-01-30T03:27:47;22.50;33.50
12060;DHT22;6091;51.432;6.880;2024-01-30T03:30:15;22.60;33.50
12060;DHT22;6091;51.432;6.880;2024-01-30T03:32:42;22.50;33.50
12060;DHT22;6091;51.432;6.880;2024-01-30T03:35:10;22.60;33.60
12060;DHT22;6091;51.432;6.880;2024-01-30T03:37:37;22.50;33.50
12060;DHT22;6091;51.432;6.880;2024-01-30T03:40:05;22.50;33.50
12060;DHT22;6091;51.432;6.880;2024-01-30T03:42:32;22.50;33.50
12060;DHT22;6091;51.432;6.880;2024-01-30T03:45:01;22.50;33.50
12060;DHT22;6091;51.432;6.880;2024-01-30T03:47:28;22.50;33.50
12060;DHT22;6091;51.432;6.880;2024-01-30T03:49:56;22.50;33.50
12060;DHT22;6091;51.432;6.880;2024-01-30T03:52:23;22.50;33.50
12060;DHT22;6091;51.432;6.880;2024-01-30T03:54:51;22.40;33.50
12060;DHT22;6091;51.432;6.880;2024-01-30T03:57:18;22.40;33.50
12060;DHT22;6091;51.432;6.880;2024-01-30T03:59:45;22.50;33.60
12060;DHT22;6091;51.432;6.880;2024-01-30T04:02:12;22.40;33.50
12060;DHT22;6091;51.432;6.880;2024-01-30T04:04:40;22.40;33.60
12060;DHT22;6091;51.432;6.880;2024-01-30T04:07:08;22.40;33.50
12060;DHT22;6091;51.432;6.880;2024-01-30T04:09:36;22.40;33.50
12060;DHT22;6091;51.432;6.880;2024-01-30T04:12:03;22.40;33.50
12060;DHT22;6091;51.432;6.880;2024-01-30T04:14:30;22.40;33.60
12060;DHT22;6091;51.432;6.880;2024-01-30T04:16:57;22.40;33.60
12060;DHT22;6091;51.432;6.880;2024-01-30T04:19:25;22.40;33.60
12060;DHT22;6091;51.432;6.880;2024-01-30T04:21:52;22.40;33.60
12060;DHT22;6091;51.432;6.880;2024-01-30T04:24:19;22.40;33.60
12060;DHT22;6091;51.432;6.880;2024-01-30T04:26:46;22.40;33.60
12060;DHT22;6091;51.432;6.880;2024-01-30T04:29:14;22.40;33.60
12060;DHT22;6091;51.432;6.880;2024-01-30T04:31:42;22.40;33.60
12060;DHT22;6091;51.432;6.880;2024-01-30T04:34:09;22.40;33.70
12060;DHT22;6091;51.432;6.880;2024-01-30T04:36:36;22.40;33.60
12060;DHT22;6091;51.432;6.880;2024-01-30T04:39:03;22.40;33.60
12060;DHT22;6091;51.432;6.880;2024-01-30T04:41:31;22.40;33.70
12060;DHT22;6091;51.432;6.880;2024-01-30T04:43:59;22.40;33.70
12060;DHT22;6091;51.432;6.880;2024-01-30T04:46:26;22.40;33.70
12060;DHT22;6091;51.432;6.880;2024-01-30T04:48:53;22.30;33.60
12060;DHT22;6091;51.432;6.880;2024-01-30T04:51:20;22.40;33.70
12060;DHT22;6091;51.432;6.880;2024-01-30T04:53:47;22.40;33.70
12060;DHT22;6091;51.432;6.880;2024-01-30T04:56:14;22.30;33.60
12060;DHT22;6091;51.432;6.880;2024-01-30T04:58:44;22.30;33.60
12060;DHT22;6091;51.432;6.880;2024-01-30T05:01:16;22.30;33.60
12060;DHT22;6091;51.432;6.880;2024-01-30T05:03:44;22.30;33.70
12060;DHT22;6091;51.432;6.880;2024-01-30T05:06:11;22.30;33.70
12060;DHT22;6091;51.432;6.880;2024-01-30T05:08:39;22.30;33.70
12060;DHT22;6091;51.432;6.880;2024-01-30T05:11:06;22.30;33.70
12060;DHT22;6091;51.432;6.880;2024-01-30T05:13:34;22.30;33.70
12060;DHT22;6091;51.432;6.880;2024-01-30T05:16:02;22.30;33.70
12060;DHT22;6091;51.432;6.880;2024-01-30T05:18:30;22.30;33.70
12060;DHT22;6091;51.432;6.880;2024-01-30T05:20:58;22.30;33.70
12060;DHT22;6091;51.432;6.880;2024-01-30T05:23:25;22.30;33.70
12060;DHT22;6091;51.432;6.880;2024-01-30T05:25:52;22.30;33.70
12060;DHT22;6091;51.432;6.880;2024-01-30T05:28:20;22.30;33.80
12060;DHT22;6091;51.432;6.880;2024-01-30T05:30:47;22.30;33.80
12060;DHT22;6091;51.432;6.880;2024-01-30T05:33:14;22.30;33.80
12060;DHT22;6091;51.432;6.880;2024-01-30T05:35:42;22.30;33.80
12060;DHT22;6091;51.432;6.880;2024-01-30T05:38:10;22.30;33.80
12060;DHT22;6091;51.432;6.880;2024-01-30T05:40:38;22.30;33.80
12060;DHT22;6091;51.432;6.880;2024-01-30T05:43:05;22.30;33.80
12060;DHT22;6091;51.432;6.880;2024-01-30T05:45:32;22.20;33.70
12060;DHT22;6091;51.432;6.880;2024-01-30T05:48:00;22.20;33.80
12060;DHT22;6091;51.432;6.880;2024-01-30T05:50:28;22.20;33.80
12060;DHT22;6091;51.432;6.880;2024-01-30T05:52:56;22.20;33.80
12060;DHT22;6091;51.432;6.880;2024-01-30T05:55:23;22.20;33.80
12060;DHT22;6091;51.432;6.880;2024-01-30T05:57:50;22.20;33.80
12060;DHT22;6091;51.432;6.880;2024-01-30T06:00:20;22.30;33.90
12060;DHT22;6091;51.432;6.880;2024-01-30T06:02:47;22.20;33.80
12060;DHT22;6091;51.432;6.880;2024-01-30T06:05:14;22.20;33.80
12060;DHT22;6091;51.432;6.880;2024-01-30T06:07:41;22.20;33.80
12060;DHT22;6091;51.432;6.880;2024-01-30T06:10:08;22.20;34.00
12060;DHT22;6091;51.432;6.880;2024-01-30T06:12:36;22.20;34.10
12060;DHT22;6091;51.432;6.880;2024-01-30T06:15:03;22.30;34.40
12060;DHT22;6091;51.432;6.880;2024-01-30T06:17:31;22.30;34.40
12060;DHT22;6091;51.432;6.880;2024-01-30T06:19:58;22.40;34.60
12060;DHT22;6091;51.432;6.880;2024-01-30T06:22:26;22.50;34.70
12060;DHT22;6091;51.432;6.880;2024-01-30T06:24:53;22.60;34.80
12060;DHT22;6091;51.432;6.880;2024-01-30T06:27:20;22.80;34.90
12060;DHT22;6091;51.432;6.880;2024-01-30T06:29:47;22.90;34.90
12060;DHT22;6091;51.432;6.880;2024-01-30T06:32:14;23.10;34.90
12060;DHT22;6091;51.432;6.880;2024-01-30T06:34:42;23.20;34.80
12060;DHT22;6091;51.432;6.880;2024-01-30T06:37:12;23.40;34.80
12060;DHT22;6091;51.432;6.880;2024-01-30T06:39:39;23.60;34.80
12060;DHT22;6091;51.432;6.880;2024-01-30T06:42:07;23.70;34.70
12060;DHT22;6091;51.432;6.880;2024-01-30T06:44:34;23.90;34.70
12060;DHT22;6091;51.432;6.880;2024-01-30T06:47:01;24.00;34.60
12060;DHT22;6091;51.432;6.880;2024-01-30T06:49:29;24.20;34.60
12060;DHT22;6091;51.432;6.880;2024-01-30T06:51:56;24.30;34.50
12060;DHT22;6091;51.432;6.880;2024-01-30T06:54:23;24.40;34.40
12060;DHT22;6091;51.432;6.880;2024-01-30T06:56:50;24.50;34.40
12060;DHT22;6091;51.432;6.880;2024-01-30T06:59:17;24.70;34.30
12060;DHT22;6091;51.432;6.880;2024-01-30T07:01:45;24.80;34.30
12060;DHT22;6091;51.432;6.880;2024-01-30T07:04:12;24.90;34.20
12060;DHT22;6091;51.432;6.880;2024-01-30T07:06:39;25.00;34.20
12060;DHT22;6091;51.432;6.880;2024-01-30T07:09:07;25.10;34.10
12060;DHT22;6091;51.432;6.880;2024-01-30T07:11:35;25.20;34.10
12060;DHT22;6091;51.432;6.880;2024-01-30T07:14:02;25.30;34.10
12060;DHT22;6091;51.432;6.880;2024-01-30T07:16:32;25.40;34.10
12060;DHT22;6091;51.432;6.880;2024-01-30T07:18:59;25.40;34.00
12060;DHT22;6091;51.432;6.880;2024-01-30T07:21:26;25.50;33.90
12060;DHT22;6091;51.432;6.880;2024-01-30T07:23:55;25.60;33.90
12060;DHT22;6091;51.432;6.880;2024-01-30T07:26:23;25.70;33.90
12060;DHT22;6091;51.432;6.880;2024-01-30T07:28:50;25.80;33.80
12060;DHT22;6091;51.432;6.880;2024-01-30T07:31:18;25.80;33.70
12060;DHT22;6091;51.432;6.880;2024-01-30T07:33:47;25.90;33.70
12060;DHT22;6091;51.432;6.880;2024-01-30T07:36:15;25.90;33.60
12060;DHT22;6091;51.432;6.880;2024-01-30T07:38:42;26.00;33.60
12060;DHT22;6091;51.432;6.880;2024-01-30T07:41:09;26.10;33.60
12060;DHT22;6091;51.432;6.880;2024-01-30T07:43:38;26.10;33.50
12060;DHT22;6091;51.432;6.880;2024-01-30T07:46:05;26.10;33.40
12060;DHT22;6091;51.432;6.880;2024-01-30T07:48:33;26.20;33.40
12060;DHT22;6091;51.432;6.880;2024-01-30T07:51:01;26.20;33.40
12060;DHT22;6091;51.432;6.880;2024-01-30T07:53:29;26.20;33.30
12060;DHT22;6091;51.432;6.880;2024-01-30T07:55:56;26.20;33.30
12060;DHT22;6091;51.432;6.880;2024-01-30T07:58:23;26.30;33.30
12060;DHT22;6091;51.432;6.880;2024-01-30T08:00:51;26.30;33.30
12060;DHT22;6091;51.432;6.880;2024-01-30T08:03:19;26.30;33.20
12060;DHT22;6091;51.432;6.880;2024-01-30T08:05:47;26.30;33.20
12060;DHT22;6091;51.432;6.880;2024-01-30T08:08:14;26.50;33.30
12060;DHT22;6091;51.432;6.880;2024-01-30T08:10:41;26.30;33.20
12060;DHT22;6091;51.432;6.880;2024-01-30T08:13:08;26.30;33.20
12060;DHT22;6091;51.432;6.880;2024-01-30T08:15:36;26.30;33.10
12060;DHT22;6091;51.432;6.880;2024-01-30T08:18:03;26.30;33.20
12060;DHT22;6091;51.432;6.880;2024-01-30T08:20:33;26.30;33.20
12060;DHT22;6091;51.432;6.880;2024-01-30T08:23:00;26.30;33.20
12060;DHT22;6091;51.432;6.880;2024-01-30T08:25:27;26.20;33.10
12060;DHT22;6091;51.432;6.880;2024-01-30T08:27:54;26.20;33.30
12060;DHT22;6091;51.432;6.880;2024-01-30T08:30:22;26.20;33.20
12060;DHT22;6091;51.432;6.880;2024-01-30T08:32:49;26.30;33.30
12060;DHT22;6091;51.432;6.880;2024-01-30T08:35:17;26.20;33.10
12060;DHT22;6091;51.432;6.880;2024-01-30T08:37:45;26.20;33.10
12060;DHT22;6091;51.432;6.880;2024-01-30T08:40:12;26.20;32.70
12060;DHT22;6091;51.432;6.880;2024-01-30T08:42:40;26.20;32.40
12060;DHT22;6091;51.432;6.880;2024-01-30T08:45:07;26.10;32.20
12060;DHT22;6091;51.432;6.880;2024-01-30T08:47:36;26.10;32.10
12060;DHT22;6091;51.432;6.880;2024-01-30T08:50:04;25.90;31.70
12060;DHT22;6091;51.432;6.880;2024-01-30T08:52:32;25.80;31.90
12060;DHT22;6091;51.432;6.880;2024-01-30T08:55:01;25.70;31.90
12060;DHT22;6091;51.432;6.880;2024-01-30T08:57:28;25.70;31.80
12060;DHT22;6091;51.432;6.880;2024-01-30T08:59:56;25.70;31.70
12060;DHT22;6091;51.432;6.880;2024-01-30T09:02:23;25.60;31.60
12060;DHT22;6091;51.432;6.880;2024-01-30T09:04:50;25.50;31.50
12060;DHT22;6091;51.432;6.880;2024-01-30T09:07:21;25.50;31.60
12060;DHT22;6091;51.432;6.880;2024-01-30T09:09:48;25.40;31.70
12060;DHT22;6091;51.432;6.880;2024-01-30T09:12:16;25.40;31.90
12060;DHT22;6091;51.432;6.880;2024-01-30T09:14:44;25.40;32.00
12060;DHT22;6091;51.432;6.880;2024-01-30T09:17:11;25.40;32.20
12060;DHT22;6091;51.432;6.880;2024-01-30T09:19:40;25.40;32.20
12060;DHT22;6091;51.432;6.880;2024-01-30T09:22:07;25.40;32.20
12060;DHT22;6091;51.432;6.880;2024-01-30T09:24:35;25.50;32.30
12060;DHT22;6091;51.432;6.880;2024-01-30T09:27:02;25.60;32.40
12060;DHT22;6091;51.432;6.880;2024-01-30T09:29:30;25.60;32.30
12060;DHT22;6091;51.432;6.880;2024-01-30T09:31:57;25.70;32.40
12060;DHT22;6091;51.432;6.880;2024-01-30T09:34:24;25.80;32.40
12060;DHT22;6091;51.432;6.880;2024-01-30T09:36:52;25.90;32.40
12060;DHT22;6091;51.432;6.880;2024-01-30T09:39:19;26.00;32.40
12060;DHT22;6091;51.432;6.880;2024-01-30T09:44:53;26.20;32.20
12060;DHT22;6091;51.432;6.880;2024-01-30T09:47:23;26.30;32.30
12060;DHT22;6091;51.432;6.880;2024-01-30T09:49:51;26.30;32.20
12060;DHT22;6091;51.432;6.880;2024-01-30T09:52:19;26.40;32.30
12060;DHT22;6091;51.432;6.880;2024-01-30T09:54:49;26.40;32.20
12060;DHT22;6091;51.432;6.880;2024-01-30T09:57:18;26.50;32.10
12060;DHT22;6091;51.432;6.880;2024-01-30T09:59:45;26.50;32.10
12060;DHT22;6091;51.432;6.880;2024-01-30T10:02:12;26.60;32.10
12060;DHT22;6091;51.432;6.880;2024-01-30T10:04:40;26.60;32.00
12060;DHT22;6091;51.432;6.880;2024-01-30T10:07:10;26.70;32.10
12060;DHT22;6091;51.432;6.880;2024-01-30T10:09:39;26.70;31.90
12060;DHT22;6091;51.432;6.880;2024-01-30T10:12:08;26.70;31.90
12060;DHT22;6091;51.432;6.880;2024-01-30T10:14:39;26.70;31.80
12060;DHT22;6091;51.432;6.880;2024-01-30T10:17:11;26.70;31.70
12060;DHT22;6091;51.432;6.880;2024-01-30T10:19:53;26.80;31.80
12060;DHT22;6091;51.432;6.880;2024-01-30T10:22:21;26.80;31.80
12060;DHT22;6091;51.432;6.880;2024-01-30T10:24:48;26.80;31.80
12060;DHT22;6091;51.432;6.880;2024-01-30T10:27:16;26.70;31.70
12060;DHT22;6091;51.432;6.880;2024-01-30T10:29:43;26.80;31.70
12060;DHT22;6091;51.432;6.880;2024-01-30T10:32:17;26.70;31.70
12060;DHT22;6091;51.432;6.880;2024-01-30T10:34:44;26.80;31.70
12060;DHT22;6091;51.432;6.880;2024-01-30T10:37:12;26.70;31.70
12060;DHT22;6091;51.432;6.880;2024-01-30T10:39:44;26.70;31.70
12060;DHT22;6091;51.432;6.880;2024-01-30T10:42:15;26.70;31.70
12060;DHT22;6091;51.432;6.880;2024-01-30T10:45:02;26.70;31.70
12060;DHT22;6091;51.432;6.880;2024-01-30T10:47:36;26.70;31.60
12060;DHT22;6091;51.432;6.880;2024-01-30T10:50:05;26.70;31.70
12060;DHT22;6091;51.432;6.880;2024-01-30T10:52:35;26.60;31.60
12060;DHT22;6091;51.432;6.880;2024-01-30T10:55:04;26.60;31.70
12060;DHT22;6091;51.432;6.880;2024-01-30T10:57:35;26.70;31.80
12060;DHT22;6091;51.432;6.880;2024-01-30T11:00:10;26.60;31.70
12060;DHT22;6091;51.432;6.880;2024-01-30T11:02:43;26.60;31.70
12060;DHT22;6091;51.432;6.880;2024-01-30T11:05:13;26.60;31.70
12060;DHT22;6091;51.432;6.880;2024-01-30T11:07:43;26.70;31.70
12060;DHT22;6091;51.432;6.880;2024-01-30T11:10:12;26.70;31.80
12060;DHT22;6091;51.432;6.880;2024-01-30T11:12:43;26.70;31.70
12060;DHT22;6091;51.432;6.880;2024-01-30T11:15:14;26.70;31.70
12060;DHT22;6091;51.432;6.880;2024-01-30T11:20:22;26.90;31.70
12060;DHT22;6091;51.432;6.880;2024-01-30T11:22:56;26.90;31.70
12060;DHT22;6091;51.432;6.880;2024-01-30T11:25:25;26.90;31.70
12060;DHT22;6091;51.432;6.880;2024-01-30T11:27:54;26.90;31.60
12060;DHT22;6091;51.432;6.880;2024-01-30T11:30:30;27.00;31.70
12060;DHT22;6091;51.432;6.880;2024-01-30T11:33:06;26.90;31.60
12060;DHT22;6091;51.432;6.880;2024-01-30T11:35:42;27.00;31.50
12060;DHT22;6091;51.432;6.880;2024-01-30T11:38:14;27.00;31.60
12060;DHT22;6091;51.432;6.880;2024-01-30T11:40:42;27.00;31.50
12060;DHT22;6091;51.432;6.880;2024-01-30T11:43:10;27.00;31.50
12060;DHT22;6091;51.432;6.880;2024-01-30T11:45:39;26.90;31.50
12060;DHT22;6091;51.432;6.880;2024-01-30T11:48:06;26.90;31.40
12060;DHT22;6091;51.432;6.880;2024-01-30T11:50:39;26.90;31.50
12060;DHT22;6091;51.432;6.880;2024-01-30T11:53:11;26.90;31.40
12060;DHT22;6091;51.432;6.880;2024-01-30T11:55:38;26.90;31.50
12060;DHT22;6091;51.432;6.880;2024-01-30T11:58:06;26.90;31.50
12060;DHT22;6091;51.432;6.880;2024-01-30T12:00:34;26.90;31.50
12060;DHT22;6091;51.432;6.880;2024-01-30T12:03:03;26.90;31.50
12060;DHT22;6091;51.432;6.880;2024-01-30T12:05:32;26.80;31.40
12060;DHT22;6091;51.432;6.880;2024-01-30T12:08:00;26.80;31.40
12060;DHT22;6091;51.432;6.880;2024-01-30T12:10:29;26.80;31.40
12060;DHT22;6091;51.432;6.880;2024-01-30T12:12:58;26.90;31.50
12060;DHT22;6091;51.432;6.880;2024-01-30T12:15:26;26.80;31.50
12060;DHT22;6091;51.432;6.880;2024-01-30T12:18:04;26.80;31.50
12060;DHT22;6091;51.432;6.880;2024-01-30T12:20:33;26.70;31.30
12060;DHT22;6091;51.432;6.880;2024-01-30T12:23:01;26.70;31.40
12060;DHT22;6091;51.432;6.880;2024-01-30T12:25:29;26.70;31.40
12060;DHT22;6091;51.432;6.880;2024-01-30T12:27:59;26.70;31.50
12060;DHT22;6091;51.432;6.880;2024-01-30T12:30:27;26.70;31.40
12060;DHT22;6091;51.432;6.880;2024-01-30T12:32:55;26.70;31.50
12060;DHT22;6091;51.432;6.880;2024-01-30T12:35:24;26.70;31.40
12060;DHT22;6091;51.432;6.880;2024-01-30T12:37:54;26.70;31.50
12060;DHT22;6091;51.432;6.880;2024-01-30T12:40:21;26.70;31.50
12060;DHT22;6091;51.432;6.880;2024-01-30T12:42:49;26.70;31.50
12060;DHT22;6091;51.432;6.880;2024-01-30T12:45:17;26.60;32.10
12060;DHT22;6091;51.432;6.880;2024-01-30T12:47:50;26.60;31.50
12060;DHT22;6091;51.432;6.880;2024-01-30T12:50:17;26.60;31.50
12060;DHT22;6091;51.432;6.880;2024-01-30T12:52:46;26.60;31.50
12060;DHT22;6091;51.432;6.880;2024-01-30T12:55:16;26.60;31.50
12060;DHT22;6091;51.432;6.880;2024-01-30T12:57:45;26.60;31.50
12060;DHT22;6091;51.432;6.880;2024-01-30T13:00:14;26.60;31.50
12060;DHT22;6091;51.432;6.880;2024-01-30T13:02:44;26.60;31.60
12060;DHT22;6091;51.432;6.880;2024-01-30T13:05:12;26.60;31.60
12060;DHT22;6091;51.432;6.880;2024-01-30T13:07:40;26.60;31.60
12060;DHT22;6091;51.432;6.880;2024-01-30T13:10:08;26.60;31.60
12060;DHT22;6091;51.432;6.880;2024-01-30T13:12:35;26.70;31.70
12060;DHT22;6091;51.432;6.880;2024-01-30T13:15:04;26.60;31.60
12060;DHT22;6091;51.432;6.880;2024-01-30T13:17:32;26.60;31.60
12060;DHT22;6091;51.432;6.880;2024-01-30T13:20:00;26.60;31.70
12060;DHT22;6091;51.432;6.880;2024-01-30T13:22:37;26.60;31.60
12060;DHT22;6091;51.432;6.880;2024-01-30T13:25:06;26.60;31.60
12060;DHT22;6091;51.432;6.880;2024-01-30T13:27:38;26.60;31.60
12060;DHT22;6091;51.432;6.880;2024-01-30T13:30:07;26.60;31.60
12060;DHT22;6091;51.432;6.880;2024-01-30T13:32:37;26.60;31.60
12060;DHT22;6091;51.432;6.880;2024-01-30T13:35:05;26.60;31.60
12060;DHT22;6091;51.432;6.880;2024-01-30T13:37:33;26.60;31.60
12060;DHT22;6091;51.432;6.880;2024-01-30T13:40:01;26.60;31.50
12060;DHT22;6091;51.432;6.880;2024-01-30T13:42:39;26.60;31.60
12060;DHT22;6091;51.432;6.880;2024-01-30T13:45:07;26.70;31.60
12060;DHT22;6091;51.432;6.880;2024-01-30T13:47:37;26.60;31.60
12060;DHT22;6091;51.432;6.880;2024-01-30T13:50:06;26.60;31.60
12060;DHT22;6091;51.432;6.880;2024-01-30T13:52:35;26.60;31.60
12060;DHT22;6091;51.432;6.880;2024-01-30T13:55:11;26.70;31.60
12060;DHT22;6091;51.432;6.880;2024-01-30T13:57:39;26.70;31.60
12060;DHT22;6091;51.432;6.880;2024-01-30T14:00:07;26.70;31.70
12060;DHT22;6091;51.432;6.880;2024-01-30T14:02:36;26.70;31.60
12060;DHT22;6091;51.432;6.880;2024-01-30T14:05:06;26.70;31.60
12060;DHT22;6091;51.432;6.880;2024-01-30T14:07:35;26.70;31.60
12060;DHT22;6091;51.432;6.880;2024-01-30T14:10:04;26.70;31.60
12060;DHT22;6091;51.432;6.880;2024-01-30T14:12:37;26.70;31.60
12060;DHT22;6091;51.432;6.880;2024-01-30T14:15:06;26.80;31.70
12060;DHT22;6091;51.432;6.880;2024-01-30T14:17:49;26.80;31.60
12060;DHT22;6091;51.432;6.880;2024-01-30T14:20:17;26.80;32.30
12060;DHT22;6091;51.432;6.880;2024-01-30T14:22:44;26.80;31.60
12060;DHT22;6091;51.432;6.880;2024-01-30T14:25:12;26.80;31.60
12060;DHT22;6091;51.432;6.880;2024-01-30T14:27:41;26.90;31.70
12060;DHT22;6091;51.432;6.880;2024-01-30T14:30:12;26.90;31.70
12060;DHT22;6091;51.432;6.880;2024-01-30T14:32:39;26.80;31.70
12060;DHT22;6091;51.432;6.880;2024-01-30T14:35:09;26.90;31.70
12060;DHT22;6091;51.432;6.880;2024-01-30T14:37:38;26.80;31.70
12060;DHT22;6091;51.432;6.880;2024-01-30T14:40:06;26.90;32.00
12060;DHT22;6091;51.432;6.880;2024-01-30T14:42:35;26.80;31.70
12060;DHT22;6091;51.432;6.880;2024-01-30T14:45:05;26.90;31.80
12060;DHT22;6091;51.432;6.880;2024-01-30T14:47:35;26.90;31.80
12060;DHT22;6091;51.432;6.880;2024-01-30T14:50:04;26.80;31.70
12060;DHT22;6091;51.432;6.880;2024-01-30T14:52:35;26.80;31.80
12060;DHT22;6091;51.432;6.880;2024-01-30T14:55:04;26.90;31.80
12060;DHT22;6091;51.432;6.880;2024-01-30T14:57:32;26.80;31.80
12060;DHT22;6091;51.432;6.880;2024-01-30T15:00:02;26.80;31.80
12060;DHT22;6091;51.432;6.880;2024-01-30T15:02:31;26.80;31.80
12060;DHT22;6091;51.432;6.880;2024-01-30T15:04:59;26.80;31.80
12060;DHT22;6091;51.432;6.880;2024-01-30T15:07:27;26.80;31.80
12060;DHT22;6091;51.432;6.880;2024-01-30T15:10:07;26.80;31.80
12060;DHT22;6091;51.432;6.880;2024-01-30T15:12:37;26.80;31.80
12060;DHT22;6091;51.432;6.880;2024-01-30T15:15:07;26.80;31.80
12060;DHT22;6091;51.432;6.880;2024-01-30T15:17:37;26.80;32.40
12060;DHT22;6091;51.432;6.880;2024-01-30T15:20:06;26.90;31.90
12060;DHT22;6091;51.432;6.880;2024-01-30T15:22:34;26.90;31.90
12060;DHT22;6091;51.432;6.880;2024-01-30T15:25:04;26.90;31.50
12060;DHT22;6091;51.432;6.880;2024-01-30T15:27:34;26.80;31.20
12060;DHT22;6091;51.432;6.880;2024-01-30T15:30:01;26.80;31.20
12060;DHT22;6091;51.432;6.880;2024-01-30T15:32:29;26.60;31.10
12060;DHT22;6091;51.432;6.880;2024-01-30T15:34:57;26.60;31.20
12060;DHT22;6091;51.432;6.880;2024-01-30T15:37:28;26.60;31.30
12060;DHT22;6091;51.432;6.880;2024-01-30T15:39:56;26.50;31.30
12060;DHT22;6091;51.432;6.880;2024-01-30T15:42:25;26.50;31.30
12060;DHT22;6091;51.432;6.880;2024-01-30T15:44:52;26.30;31.60
12060;DHT22;6091;51.432;6.880;2024-01-30T15:47:20;26.30;31.80
12060;DHT22;6091;51.432;6.880;2024-01-30T15:49:48;26.30;31.70
12060;DHT22;6091;51.432;6.880;2024-01-30T15:52:16;26.40;31.70
12060;DHT22;6091;51.432;6.880;2024-01-30T15:54:45;26.40;31.50
12060;DHT22;6091;51.432;6.880;2024-01-30T15:57:14;26.40;31.50